Flight Track Log - Related Links

Times and Time Zones

All times are in EST time to prevent confusion due to time zone crossing. See the EJA929 flight status page for this flight to view local times or setup timezone preferences in your user account.

Time Position Orientation Groundspeed Altitude Reporting Facility
EST Latitude Longitude Course Direction KTS MPH feet Rate Location/Type
Mon 07:26:17 AM 39.0000 -77.5000 72° East 214 246 4,400  Level Potomac TRACON
Mon 07:27:17 AM 39.0667 -77.4833 11° North 256 295 8,300 2,281 Climbing Potomac TRACON
Mon 07:28:18 AM 39.1167 -77.4167 46° Northeast 310 357 9,000 397 Climbing Potomac TRACON
Mon 07:29:18 AM 39.1667 -77.3333 52° Northeast 308 354 9,100 704 Climbing Potomac TRACON
Mon 07:31:00 AM 39.1380 -76.5985 72° East  Level FlightAware Approximate
Mon 07:31:17 AM 39.2722 -77.1572 52° Northeast 330 380 11,100  Level Washington Center
Mon 07:32:15 AM 39.3258 -77.0350 60° Northeast 354 407 13,100 1,966 Climbing Washington Center
Mon 07:33:16 AM 39.3025 -76.8764 101° East 378 435 15,000 1,934 Climbing Washington Center
Mon 07:34:16 AM 39.2625 -76.7122 107° East 418 481 17,000 1,017 Climbing Washington Center
Mon 07:35:14 AM 39.2222 -76.5372 106° East 459 528 17,000  Level Washington Center
Mon 07:36:15 AM 39.1839 -76.3628 106° East 488 562 17,000 -49 Level Washington Center
Mon 07:37:17 AM 39.2142 -76.1675 79° East 489 563 16,900 -49 Descending Washington Center
Mon 07:38:17 AM 39.3106 -76.0531 43° Northeast 440 506 16,900  Level Washington Center
Mon 07:39:15 AM 39.4172 -75.9542 36° Northeast 442 509 16,900 -108 Level Washington Center
Mon 07:41:04 AM 39.6167 -75.7667 36° Northeast 475 547 16,600 -923 Descending Philadelphia TRACON
Mon 07:42:04 AM 39.7167 -75.6667 38° Northeast 451 519 14,300 -1,762 Descending Philadelphia TRACON
Mon 07:43:10 AM 39.8167 -75.5833 33° Northeast 394 453 12,900 -600 Descending Philadelphia TRACON
Mon 07:44:04 AM 39.8833 -75.5167 37° Northeast 347 399 13,100 105 Climbing Philadelphia TRACON
Mon 07:45:04 AM 39.9833 -75.4333 33° Northeast 402 463 13,100  Level Philadelphia TRACON
Mon 07:46:04 AM 40.0667 -75.3500 37° Northeast 399 459 13,100 -200 Level Philadelphia TRACON
Mon 07:47:04 AM 40.1667 -75.2667 32° Northeast 399 459 12,700 -950 Descending Philadelphia TRACON
Mon 07:48:04 AM 40.2500 -75.1833 37° Northeast 341 392 11,200 -1,669 Descending Philadelphia TRACON
Mon 07:49:35 AM 40.3500 -75.0833 37° Northeast 317 365 8,500 -1,669 Descending New York TRACON
Mon 07:50:35 AM 40.4000 -75.0000 52° Northeast 303 349 7,000 -1,474 Descending New York TRACON
Mon 07:51:29 AM 40.4500 -74.9333 45° Northeast 281 323 5,700 -1,421 Descending New York TRACON
Mon 07:52:29 AM 40.5000 -74.8500 52° Northeast 266 306 4,300 -1,350 Descending New York TRACON
Mon 07:53:29 AM 40.5333 -74.7667 62° Northeast 255 293 3,000 -684 Descending New York TRACON
Mon 07:54:23 AM 40.5667 -74.7000 57° Northeast 254 292 3,000  Level New York TRACON
Mon 07:55:23 AM 40.5833 -74.6167 75° East 253 291 3,000  Level New York TRACON
Mon 07:56:23 AM 40.6167 -74.5333 62° Northeast 246 283 3,000 -474 Level New York TRACON
Mon 07:57:17 AM 40.6500 -74.4667 57° Northeast 254 292 2,100 -526 Descending New York TRACON
Mon 07:58:17 AM 40.6667 -74.3833 75° East 214 246 2,000 -53 Descending New York TRACON
Mon 07:59:11 AM 40.7000 -74.3167 57° Northeast 202 232 2,000 -53 Level New York TRACON
Mon 08:00:11 AM 40.7167 -74.2667 66° East 187 215 1,900 -250 Descending New York TRACON
Mon 08:01:11 AM 40.7500 -74.2167 49° Northeast 179 206 1,500 -211 Descending New York TRACON
Mon 08:02:05 AM 40.7833 -74.1667 49° Northeast 187 215 1,500 -53 Level New York TRACON
Mon 08:03:05 AM 40.8167 -74.1333 37° Northeast 147 169 1,400 -500 Descending New York TRACON
Mon 08:04:05 AM 40.8333 -74.0833 66° East 129 148 500 -900 Descending New York TRACON

Login

Don't have an account? Register now (free) for customized features, flight alerts, and more!